Estación Meteorológica Peña el Pijo (Robertgarden) [ 02/03/23 03:07:20 CET ]

Fecha Hora Presion(HPa) Temp (°C) Humedad % Rocio (°C) Viento ( m/s) Direccion Lluvia 1Hora(mm) Lluvia 24H(mm) LLuvia Total(mm)
2010-Sep-16 01:01:16 1014.300 15.3 70 9.9         156.43
2010-Sep-16 02:01:14 1013.900 14.8 72 9.8         156.43
2010-Sep-16 03:01:15 1013.400 14.3 73 9.5         156.43
2010-Sep-16 04:01:13 1012.700 13.8 73 9.0         156.43
2010-Sep-16 05:01:15 1012.300 13.6 72 8.6         156.43
2010-Sep-16 06:01:16 1011.900 15.0 68 9.1         156.43
2010-Sep-16 07:01:16 1011.900 15.8 66 9.5         156.43
2010-Sep-16 08:01:17 1011.900 15.9 66 9.6         156.43
2010-Sep-16 09:01:13 1012.300 17.4 64 10.5         156.43
2010-Sep-16 10:01:15 1012.100 20.4 58 11.8         156.43
2010-Sep-16 11:01:18 1012.200 22.8 53 12.7         156.43
2010-Sep-16 12:01:11 1012.300 22.9 51 12.2         156.43
2010-Sep-16 13:01:17 1012.100 22.8 52 12.4         156.43
2010-Sep-16 14:01:14 1011.500 24.8 48 13.0         156.43
2010-Sep-16 15:01:16 1012.000 23.8 49 12.5         156.43
2010-Sep-16 16:01:13 1011.400 21.1 69 15.2         156.43
2010-Sep-16 17:01:23 1011.400 19.3 78 15.4         156.43
2010-Sep-16 18:01:26 1010.300 19.4 78 15.5         156.43
2010-Sep-16 19:01:31 1010.400 19.2 75 14.7         156.43
2010-Sep-16 20:01:26 1009.900 18.3 81 15.0         156.43
2010-Sep-16 21:01:15 1010.400 16.6 85 14.1         156.43
2010-Sep-16 22:01:12 1010.200 15.9 87 13.8         156.43
2010-Sep-16 23:01:16 1010.600 15.2 88 13.2         156.43

Temperatura Máxima:24°    Temperatura Mínima:13°
Presión Máxima:1014.300 Hpa    Presión Mínima:1009.900 Hpa


Volver